Time;durP1;ratioP1;P1;durP2;ratioP2;P2;SDS_P1;SDS_P2;PMS_P1;PMS_P2;Temp;Humidity;BMP_temperature;BMP_pressure;BME280_temperature;BME280_humidity;BME280_pressure;Samples;Min_cycle;Max_cycle;Signal;HPM_P1;HPM_P2
2022/10/13 00:01:50;;;;;;;;;;;8.10;99.90;;;;;;5071299;28;20439;-68
2022/10/13 00:04:15;;;;;;;16.17;6.55;;;8.20;99.90;;;;;;5060483;28;19955;-68
2022/10/13 00:06:41;;;;;;;;;;;8.20;99.90;;;;;;5069080;28;20036;-68
2022/10/13 00:09:07;;;;;;;13.10;6.57;;;8.30;99.90;;;;;;5080729;28;20069;-67
2022/10/13 00:11:32;;;;;;;;;;;8.30;99.90;;;;;;5071163;28;20044;-69
2022/10/13 00:14:00;;;;;;;20.10;6.90;;;8.30;99.90;;;;;;5060514;28;20391;-68
2022/10/13 00:16:27;;;;;;;17.50;5.63;;;8.30;99.90;;;;;;5060977;28;20037;-68
2022/10/13 00:18:53;;;;;;;17.15;5.80;;;8.30;99.90;;;;;;5045028;28;20158;-69
2022/10/13 00:21:21;;;;;;;;;;;8.40;99.90;;;;;;5046388;28;20132;-68
2022/10/13 00:23:47;;;;;;;9.75;4.68;;;8.40;99.90;;;;;;5047814;28;20394;-69
2022/10/13 00:26:15;;;;;;;16.75;5.85;;;8.40;99.90;;;;;;5047939;28;20059;-68
2022/10/13 00:28:41;;;;;;;16.60;5.55;;;8.40;99.90;;;;;;5046352;28;20528;-68
2022/10/13 00:31:28;;;;;;;11.00;4.70;;;8.40;99.90;;;;;;5053318;28;20079;-69
2022/10/13 00:33:54;;;;;;;19.35;5.22;;;8.40;99.90;;;;;;5062909;28;20040;-67
2022/10/13 00:36:21;;;;;;;11.07;5.07;;;8.40;99.90;;;;;;5066501;28;20052;-67
2022/10/13 00:38:47;;;;;;;12.35;5.47;;;8.40;99.90;;;;;;5066039;28;20124;-68
2022/10/13 00:41:13;;;;;;;;;;;8.30;99.90;;;;;;5073452;28;20161;-69
2022/10/13 00:44:00;;;;;;;12.13;5.25;;;8.40;99.90;;;;;;5065170;28;19995;-67
2022/10/13 00:46:29;;;;;;;13.48;5.05;;;8.30;99.90;;;;;;5065709;28;20044;-66
2022/10/13 00:48:58;;;;;;;12.70;4.97;;;8.40;99.90;;;;;;5046622;28;20095;-66
2022/10/13 00:51:27;;;;;;;16.45;5.40;;;8.40;99.90;;;;;;5055572;28;20407;-66
2022/10/13 00:53:55;;;;;;;16.23;5.43;;;8.50;99.90;;;;;;5066061;28;20103;-66
2022/10/13 00:56:22;;;;;;;13.00;4.70;;;8.50;99.90;;;;;;5066429;28;20052;-66
2022/10/13 00:58:48;;;;;;;12.55;5.28;;;8.50;99.90;;;;;;5064650;28;20060;-66
2022/10/13 01:01:15;;;;;;;17.70;5.55;;;8.60;99.90;;;;;;5065079;28;20033;-66
2022/10/13 01:03:40;;;;;;;9.95;5.20;;;8.50;99.90;;;;;;5065608;28;20055;-66
2022/10/13 01:06:07;;;;;;;;;;;8.50;99.90;;;;;;5067182;28;20036;-66
2022/10/13 01:08:33;;;;;;;8.65;4.75;;;8.40;99.90;;;;;;5066802;28;19997;-66
2022/10/13 01:11:36;;;;;;;12.57;4.78;;;8.30;99.90;;;;;;5070340;28;20043;-66
2022/10/13 01:14:33;;;;;;;13.52;6.18;;;8.20;99.90;;;;;;5073117;28;20039;-66
2022/10/13 01:17:20;;;;;;;10.52;5.03;;;8.10;99.90;;;;;;5066394;28;20146;-66
2022/10/13 01:20:23;;;;;;;11.18;4.85;;;8.10;99.90;;;;;;5064223;28;20080;-66
2022/10/13 01:23:22;;;;;;;11.20;5.22;;;8.00;99.90;;;;;;5065471;28;20558;-66
2022/10/13 01:26:05;;;;;;;8.93;5.10;;;7.90;99.90;;;;;;5066370;28;20076;-67
2022/10/13 01:28:59;;;;;;;13.20;5.35;;;7.90;99.90;;;;;;5064916;28;20090;-67
2022/10/13 01:31:39;;;;;;;14.23;4.88;;;7.80;99.90;;;;;;5063895;28;20036;-67
2022/10/13 01:34:16;;;;;;;12.45;5.38;;;7.80;99.90;;;;;;5065458;28;20744;-67
2022/10/13 01:36:52;;;;;;;;;;;7.80;99.90;;;;;;5064772;28;20040;-67
2022/10/13 01:39:25;;;;;;;9.80;5.03;;;7.80;99.90;;;;;;5064135;28;19916;-67
2022/10/13 01:41:56;;;;;;;16.48;5.40;;;7.80;99.90;;;;;;5073729;28;20040;-66
2022/10/13 01:44:31;;;;;;;13.23;5.38;;;7.80;99.90;;;;;;5064357;28;20131;-66
2022/10/13 01:46:59;;;;;;;14.43;5.60;;;7.70;99.90;;;;;;5061639;28;20110;-66
2022/10/13 01:49:29;;;;;;;14.90;5.53;;;7.70;99.90;;;;;;5064181;28;20558;-66
2022/10/13 01:52:00;;;;;;;19.20;4.85;;;7.70;99.90;;;;;;5065452;28;20049;-66
2022/10/13 01:54:25;;;;;;;7.75;4.72;;;7.60;99.90;;;;;;5065412;28;20040;-66
2022/10/13 01:56:52;;;;;;;;;;;7.60;99.90;;;;;;5065173;28;20040;-66
2022/10/13 01:59:18;;;;;;;15.60;5.43;;;7.50;99.90;;;;;;5064445;28;19920;-66
2022/10/13 02:01:57;;;;;;;13.48;6.13;;;7.50;99.90;;;;;;5062948;28;20045;-66
2022/10/13 02:04:46;;;;;;;234.52;10.60;;;7.40;99.90;;;;;;5064545;28;20678;-66
2022/10/13 02:07:26;;;;;;;10.93;5.47;;;7.40;99.90;;;;;;5063512;28;20052;-66
2022/10/13 02:10:19;;;;;;;14.63;5.15;;;7.40;99.90;;;;;;5059157;28;20427;-66
2022/10/13 02:12:50;;;;;;;12.20;5.75;;;7.40;99.90;;;;;;5071930;28;20041;-66
2022/10/13 02:15:21;;;;;;;12.95;5.38;;;7.40;99.90;;;;;;5065432;28;20040;-66
2022/10/13 02:17:47;;;;;;;17.60;5.55;;;7.30;99.90;;;;;;5064791;28;20442;-66
2022/10/13 02:20:14;;;;;;;;;;;7.30;99.90;;;;;;5063290;28;20052;-66
2022/10/13 02:22:44;;;;;;;12.43;5.85;;;7.40;99.90;;;;;;5062865;28;19950;-66
2022/10/13 02:25:10;;;;;;;10.75;5.07;;;7.40;99.90;;;;;;5061421;28;20054;-66
2022/10/13 02:27:36;;;;;;;;;;;7.40;99.90;;;;;;5064194;28;20044;-67
2022/10/13 02:30:02;;;;;;;12.52;5.25;;;7.40;99.90;;;;;;5062672;28;19916;-67
2022/10/13 02:32:28;;;;;;;15.88;6.55;;;7.30;99.90;;;;;;5064197;28;20045;-66
2022/10/13 02:34:54;;;;;;;;;;;7.30;99.90;;;;;;5064227;28;20035;-66
2022/10/13 02:37:19;;;;;;;10.35;5.47;;;7.30;99.90;;;;;;5064692;28;19939;-66
2022/10/13 02:39:45;;;;;;;;;;;7.40;99.90;;;;;;5064433;28;20553;-66
2022/10/13 02:42:11;;;;;;;11.70;5.72;;;7.30;99.90;;;;;;5071145;28;20391;-66
2022/10/13 02:44:36;;;;;;;13.80;5.70;;;7.30;99.90;;;;;;5061274;28;20072;-66
2022/10/13 02:47:02;;;;;;;12.13;5.35;;;7.40;99.90;;;;;;5064530;28;20098;-66
2022/10/13 02:49:27;;;;;;;;;;;7.40;99.90;;;;;;5064282;28;20043;-66
2022/10/13 02:51:54;;;;;;;19.20;5.82;;;7.30;99.90;;;;;;5065143;28;19956;-67
2022/10/13 02:54:19;;;;;;;21.05;7.80;;;7.30;99.90;;;;;;5065201;28;20404;-66
2022/10/13 02:56:45;;;;;;;;;;;7.30;99.90;;;;;;5064261;28;20039;-66
2022/10/13 02:59:11;;;;;;;17.38;6.13;;;7.30;99.90;;;;;;5064288;28;20379;-66
2022/10/13 03:01:40;;;;;;;;;;;7.30;99.90;;;;;;5075207;28;20043;-66
2022/10/13 03:04:07;;;;;;;20.30;6.07;;;7.40;99.90;;;;;;5081145;28;19920;-66
2022/10/13 03:06:32;;;;;;;13.30;6.28;;;7.30;99.90;;;;;;5064347;28;20707;-66
2022/10/13 03:08:58;;;;;;;;;;;7.30;99.90;;;;;;5064435;28;20064;-66
2022/10/13 03:11:24;;;;;;;22.00;6.28;;;7.30;99.90;;;;;;5056058;28;20241;-66
2022/10/13 03:13:50;;;;;;;11.68;5.10;;;7.30;99.90;;;;;;5064608;28;20041;-66
2022/10/13 03:16:15;;;;;;;;;;;7.20;99.90;;;;;;5064439;28;20040;-66
2022/10/13 03:18:41;;;;;;;14.45;6.38;;;7.10;99.90;;;;;;5064525;28;19955;-68
2022/10/13 03:21:07;;;;;;;13.77;5.68;;;7.20;99.90;;;;;;5063100;28;20041;-66
2022/10/13 03:23:32;;;;;;;;;;;7.20;99.90;;;;;;5063721;28;20032;-66
2022/10/13 03:25:58;;;;;;;18.02;6.53;;;7.20;99.90;;;;;;5063626;28;19928;-66
2022/10/13 03:28:24;;;;;;;12.27;5.40;;;7.20;99.90;;;;;;5062994;28;20040;-66
2022/10/13 03:30:58;;;;;;;;;;;7.10;99.90;;;;;;5055795;28;20041;-66
2022/10/13 03:33:23;;;;;;;14.70;5.30;;;7.10;99.90;;;;;;5044625;28;20519;-66
2022/10/13 03:35:49;;;;;;;;;;;7.10;99.90;;;;;;5040805;28;20079;-66
2022/10/13 03:38:14;;;;;;;19.08;6.70;;;7.10;99.90;;;;;;5043914;28;19928;-66
2022/10/13 03:40:40;;;;;;;;;;;7.10;99.90;;;;;;5040930;28;20511;-66
2022/10/13 03:43:06;;;;;;;11.68;5.85;;;7.00;99.90;;;;;;5037994;28;19974;-66
2022/10/13 03:45:31;;;;;;;13.95;5.38;;;7.10;99.90;;;;;;5043542;28;20439;-66
2022/10/13 03:47:57;;;;;;;;;;;7.10;99.90;;;;;;5044419;28;20128;-66
2022/10/13 03:50:23;;;;;;;16.27;5.70;;;7.10;99.90;;;;;;5043368;28;20406;-66
2022/10/13 03:52:48;;;;;;;16.52;6.05;;;7.10;99.90;;;;;;5045650;28;20109;-66
2022/10/13 03:55:14;;;;;;;;;;;7.10;99.90;;;;;;5047732;28;20049;-66
2022/10/13 03:57:40;;;;;;;14.75;6.32;;;7.10;99.90;;;;;;5046101;28;19921;-66
2022/10/13 04:00:09;;;;;;;;;;;7.10;99.90;;;;;;5047476;28;20040;-66
2022/10/13 04:02:35;;;;;;;15.52;6.10;;;7.10;99.90;;;;;;5065606;28;19916;-66
2022/10/13 04:05:00;;;;;;;;;;;7.10;99.90;;;;;;5065210;28;20043;-65
2022/10/13 04:07:26;;;;;;;11.77;5.30;;;7.10;99.90;;;;;;5047582;28;19960;-65
2022/10/13 04:09:52;;;;;;;;;;;7.10;99.90;;;;;;5047251;28;20692;-65
2022/10/13 04:12:18;;;;;;;22.65;5.53;;;7.10;99.90;;;;;;5042566;28;19955;-65
2022/10/13 04:14:43;;;;;;;;;;;7.10;99.90;;;;;;5045315;28;20080;-66
2022/10/13 04:17:09;;;;;;;15.18;6.43;;;7.10;99.90;;;;;;5044127;28;19963;-66
2022/10/13 04:19:34;;;;;;;;;;;7.10;99.90;;;;;;5046251;28;20136;-66
2022/10/13 04:22:00;;;;;;;15.40;5.82;;;7.10;99.90;;;;;;5049838;28;19917;-66
2022/10/13 04:24:26;;;;;;;;;;;7.10;99.90;;;;;;5047239;28;20093;-65
2022/10/13 04:26:51;;;;;;;8.77;4.75;;;7.10;99.90;;;;;;5046073;28;20009;-66
2022/10/13 04:29:17;;;;;;;;;;;7.10;99.90;;;;;;5046859;28;20098;-66
2022/10/13 04:31:43;;;;;;;13.82;5.43;;;7.20;99.90;;;;;;5048317;28;19931;-67
2022/10/13 04:34:09;;;;;;;;;;;7.20;99.90;;;;;;5047031;28;20037;-67
2022/10/13 04:36:35;;;;;;;12.75;5.38;;;7.20;99.90;;;;;;5048015;28;20007;-67
2022/10/13 04:39:01;;;;;;;;;;;7.10;99.90;;;;;;5046325;28;20512;-67
2022/10/13 04:41:27;;;;;;;17.00;5.95;;;7.20;99.90;;;;;;5048851;28;19955;-67
2022/10/13 04:43:53;;;;;;;12.90;5.90;;;7.20;99.90;;;;;;5046411;28;20037;-67
2022/10/13 04:46:25;;;;;;;14.63;6.55;;;7.20;99.90;;;;;;5053793;28;20044;-67
2022/10/13 04:48:51;;;;;;;9.65;5.85;;;7.20;99.90;;;;;;5066576;28;20061;-67
2022/10/13 04:51:20;;;;;;;12.98;6.57;;;7.20;99.90;;;;;;5059332;28;20033;-67
2022/10/13 04:53:46;;;;;;;18.52;6.78;;;7.30;99.90;;;;;;5047211;28;20090;-67
2022/10/13 04:56:15;;;;;;;15.48;6.75;;;7.30;99.90;;;;;;5050976;28;20044;-67
2022/10/13 04:58:43;;;;;;;12.38;6.15;;;7.30;99.90;;;;;;5065087;28;20117;-69
2022/10/13 05:01:15;;;;;;;15.73;6.40;;;7.30;99.90;;;;;;5059559;28;20123;-66
2022/10/13 05:03:41;;;;;;;12.15;6.32;;;7.30;99.90;;;;;;5046364;28;20041;-67
2022/10/13 05:06:19;;;;;;;13.68;6.30;;;7.30;99.90;;;;;;5048157;28;20036;-67
2022/10/13 05:08:45;;;;;;;14.82;6.65;;;7.30;99.90;;;;;;5042880;28;20048;-66
2022/10/13 05:11:11;;;;;;;;;;;7.30;99.90;;;;;;5044393;28;20361;-67
2022/10/13 05:13:37;;;;;;;10.07;5.78;;;7.30;99.90;;;;;;5048044;28;19951;-67
2022/10/13 05:16:09;;;;;;;;;;;7.30;99.90;;;;;;5065141;28;20048;-67
2022/10/13 05:18:36;;;;;;;14.23;6.15;;;7.40;99.90;;;;;;5044035;28;19944;-67
2022/10/13 05:21:09;;;;;;;16.30;6.43;;;7.50;99.90;;;;;;5043091;28;20480;-67
2022/10/13 05:23:34;;;;;;;14.80;6.25;;;7.50;99.90;;;;;;5028226;28;20051;-65
2022/10/13 05:26:04;;;;;;;;;;;7.60;99.90;;;;;;5065989;28;20044;-64
2022/10/13 05:28:30;;;;;;;13.98;7.10;;;7.70;99.90;;;;;;5048712;28;20015;-67
2022/10/13 05:30:55;;;;;;;;;;;7.60;99.90;;;;;;5062972;28;20170;-66
2022/10/13 05:33:21;;;;;;;13.55;6.82;;;7.60;99.90;;;;;;5065376;28;20007;-67
2022/10/13 05:35:46;;;;;;;;;;;7.70;99.90;;;;;;5065911;28;20089;-66
2022/10/13 05:38:12;;;;;;;12.45;5.65;;;7.70;99.90;;;;;;5063323;28;20498;-65
2022/10/13 05:40:38;;;;;;;;;;;7.70;99.90;;;;;;5060876;28;20119;-65
2022/10/13 05:43:03;;;;;;;12.73;5.53;;;7.80;99.90;;;;;;5065172;28;19923;-65
2022/10/13 05:45:31;;;;;;;;;;;7.90;99.90;;;;;;5065847;28;20044;-65
2022/10/13 05:47:56;;;;;;;10.38;5.43;;;7.90;99.90;;;;;;5053824;28;19916;-66
2022/10/13 05:50:22;;;;;;;;;;;8.00;99.90;;;;;;5059264;28;20091;-66
2022/10/13 05:52:48;;;;;;;17.35;5.95;;;8.00;99.90;;;;;;5063142;28;19920;-67
2022/10/13 05:55:16;;;;;;;17.77;6.50;;;8.10;99.90;;;;;;5059214;28;20119;-66
2022/10/13 05:57:46;;;;;;;14.02;7.28;;;8.10;99.90;;;;;;5062028;28;20043;-67
2022/10/13 06:00:15;;;;;;;16.92;6.22;;;8.20;99.90;;;;;;5057805;28;20095;-66
2022/10/13 06:02:52;;;;;;;12.57;7.53;;;8.30;99.90;;;;;;5071620;28;20037;-67
2022/10/13 06:05:19;;;;;;;;;;;8.40;99.90;;;;;;5067752;28;20094;-68
2022/10/13 06:07:46;;;;;;;20.45;7.00;;;8.40;99.90;;;;;;5067957;28;19920;-66
2022/10/13 06:10:13;;;;;;;12.77;6.93;;;8.50;99.90;;;;;;5063825;28;20801;-66
2022/10/13 06:12:38;;;;;;;21.90;8.70;;;8.50;99.90;;;;;;5072822;28;20037;-67
2022/10/13 06:15:04;;;;;;;;;;;8.50;99.90;;;;;;5073908;28;20507;-66
2022/10/13 06:17:30;;;;;;;16.50;7.68;;;8.60;99.90;;;;;;5064568;28;20007;-66
2022/10/13 06:19:55;;;;;;;;;;;8.60;99.90;;;;;;5065622;28;20047;-67
2022/10/13 06:22:21;;;;;;;17.95;6.97;;;8.60;99.90;;;;;;5064254;28;20023;-67
2022/10/13 06:24:47;;;;;;;;;;;8.60;99.90;;;;;;5084129;28;20044;-66
2022/10/13 06:27:12;;;;;;;13.25;6.75;;;8.70;99.90;;;;;;5083681;28;19969;-66
2022/10/13 06:29:38;;;;;;;;;;;8.70;99.90;;;;;;5065111;28;20075;-66
2022/10/13 06:32:04;;;;;;;17.92;7.38;;;8.60;99.90;;;;;;5063925;28;20023;-67
2022/10/13 06:34:30;;;;;;;13.30;7.00;;;8.70;99.90;;;;;;5064978;28;20044;-66
2022/10/13 06:36:57;;;;;;;;;;;8.70;99.90;;;;;;5064606;28;20040;-67
2022/10/13 06:39:22;;;;;;;18.53;7.70;;;8.80;99.90;;;;;;5064777;28;19924;-68
2022/10/13 06:41:49;;;;;;;17.40;6.90;;;8.80;99.90;;;;;;5065528;28;20222;-67
2022/10/13 06:44:15;;;;;;;15.82;7.00;;;8.80;99.90;;;;;;5061177;28;20040;-68
2022/10/13 06:46:41;;;;;;;;;;;8.90;99.90;;;;;;5065270;28;20078;-68
2022/10/13 06:49:09;;;;;;;16.92;6.65;;;9.00;99.90;;;;;;5064825;28;20358;-67
2022/10/13 06:51:34;;;;;;;14.73;7.43;;;9.00;99.90;;;;;;5064174;28;20662;-67
2022/10/13 06:54:00;;;;;;;;;;;9.10;99.90;;;;;;5065549;28;20032;-68
2022/10/13 06:56:27;;;;;;;13.30;6.25;;;9.10;99.90;;;;;;5064346;28;20655;-67
2022/10/13 06:58:53;;;;;;;18.73;7.03;;;9.20;99.90;;;;;;5063436;28;20058;-68
2022/10/13 07:01:18;;;;;;;;;;;9.20;99.90;;;;;;5063647;28;20847;-68
2022/10/13 07:03:48;;;;;;;13.23;6.97;;;9.30;99.90;;;;;;5064185;28;20406;-68
2022/10/13 07:06:13;;;;;;;27.63;8.63;;;9.30;99.90;;;;;;5062987;28;20048;-66
2022/10/13 07:08:39;;;;;;;;;;;9.40;99.90;;;;;;5063701;28;20051;-68
2022/10/13 07:11:11;;;;;;;15.65;7.00;;;9.40;99.90;;;;;;5062750;28;19920;-67
2022/10/13 07:13:38;;;;;;;14.35;6.50;;;9.40;99.90;;;;;;5062943;28;20113;-68
2022/10/13 07:16:05;;;;;;;13.13;6.63;;;9.40;99.90;;;;;;5064319;28;20055;-67
2022/10/13 07:18:31;;;;;;;22.90;7.60;;;9.50;99.90;;;;;;5064713;28;20056;-67
2022/10/13 07:20:57;;;;;;;;;;;9.60;99.90;;;;;;5065622;28;20036;-67
2022/10/13 07:23:23;;;;;;;20.02;8.02;;;9.60;99.90;;;;;;5068181;28;20281;-67
2022/10/13 07:25:49;;;;;;;;;;;9.70;99.90;;;;;;5074091;28;20121;-66
2022/10/13 07:28:14;;;;;;;16.42;6.97;;;9.70;99.90;;;;;;5075149;28;19943;-66
2022/10/13 07:30:40;;;;;;;;;;;9.80;99.90;;;;;;5074661;28;20161;-67
2022/10/13 07:33:06;;;;;;;20.50;7.55;;;9.80;99.90;;;;;;5068012;28;19966;-66
2022/10/13 07:35:31;;;;;;;;;;;9.80;99.90;;;;;;5067930;28;20040;-67
2022/10/13 07:37:57;;;;;;;15.75;7.70;;;9.90;99.90;;;;;;5068044;28;19943;-67
2022/10/13 07:40:23;;;;;;;;;;;9.90;99.90;;;;;;5066849;28;20716;-66
2022/10/13 07:42:49;;;;;;;24.52;7.63;;;9.90;99.90;;;;;;5066413;28;19920;-67
2022/10/13 07:45:14;;;;;;;;;;;10.00;99.90;;;;;;5067555;28;20055;-66
2022/10/13 07:47:40;;;;;;;14.13;6.20;;;10.10;99.90;;;;;;5067444;28;19973;-67
2022/10/13 07:50:06;;;;;;;;;;;10.10;99.90;;;;;;5067281;28;20064;-66
2022/10/13 07:52:34;;;;;;;15.50;6.35;;;10.10;99.90;;;;;;5068110;28;20100;-67
2022/10/13 07:55:00;;;;;;;11.63;4.95;;;10.20;99.90;;;;;;5067409;28;20043;-66
2022/10/13 07:57:26;;;;;;;;;;;10.20;99.90;;;;;;5065556;28;20048;-67
2022/10/13 07:59:52;;;;;;;24.33;6.93;;;10.30;99.90;;;;;;5065756;28;20387;-66
2022/10/13 08:02:18;;;;;;;17.48;6.85;;;10.30;99.90;;;;;;5065474;28;20521;-67
2022/10/13 08:04:44;;;;;;;;;;;10.30;99.90;;;;;;5066841;28;20095;-66
2022/10/13 08:07:10;;;;;;;22.55;7.47;;;10.40;99.90;;;;;;5065593;28;19950;-66
2022/10/13 08:09:36;;;;;;;17.85;7.78;;;10.40;99.90;;;;;;5065757;28;20037;-67
2022/10/13 08:12:02;;;;;;;;;;;10.40;99.90;;;;;;5067250;28;20642;-67
2022/10/13 08:14:29;;;;;;;24.92;6.35;;;10.50;99.90;;;;;;5066510;28;19930;-67
2022/10/13 08:16:55;;;;;;;18.10;5.75;;;10.60;99.90;;;;;;5065447;28;20048;-67
2022/10/13 08:19:21;;;;;;;17.65;5.80;;;10.70;99.90;;;;;;5066183;28;20124;-67
2022/10/13 08:21:47;;;;;;;;;;;10.70;99.90;;;;;;5067734;28;20036;-66
2022/10/13 08:24:15;;;;;;;22.65;7.38;;;10.80;99.90;;;;;;5066364;28;20047;-67
2022/10/13 08:26:42;;;;;;;10.77;5.97;;;10.80;99.90;;;;;;5065697;28;20106;-67
2022/10/13 08:29:08;;;;;;;20.60;6.75;;;10.90;99.90;;;;;;5065632;28;20492;-67
2022/10/13 08:31:34;;;;;;;18.40;5.85;;;11.00;99.90;;;;;;5063106;28;20515;-67
2022/10/13 08:33:59;;;;;;;;;;;11.00;99.90;;;;;;5065954;28;20051;-66
2022/10/13 08:36:25;;;;;;;21.95;6.40;;;11.10;99.90;;;;;;5071242;28;19999;-67
2022/10/13 08:38:52;;;;;;;;;;;11.20;99.90;;;;;;5072807;28;20535;-67
2022/10/13 08:41:38;;;;;;;22.83;7.85;;;11.40;99.90;;;;;;5063745;28;19943;-67
2022/10/13 08:44:14;;;;;;;21.07;7.93;;;11.50;99.90;;;;;;5062814;28;20097;-67
2022/10/13 08:46:52;;;;;;;20.03;6.20;;;11.60;99.90;;;;;;5071780;28;20097;-63
2022/10/13 08:49:18;;;;;;;16.63;6.30;;;11.70;99.90;;;;;;5071941;28;20127;-67
2022/10/13 08:51:44;;;;;;;19.65;6.40;;;11.80;99.90;;;;;;5074222;28;20101;-67
2022/10/13 08:54:12;;;;;;;;;;;11.80;99.90;;;;;;5078452;28;20438;-66
2022/10/13 08:56:37;;;;;;;12.40;6.22;;;11.80;99.90;;;;;;5075285;28;20375;-68
2022/10/13 08:59:03;;;;;;;;;;;11.80;99.90;;;;;;5070666;28;20043;-71
2022/10/13 09:01:33;;;;;;;15.57;6.38;;;11.80;99.90;;;;;;5064732;28;20383;-61
2022/10/13 09:04:27;;;;;;;15.80;6.57;;;11.80;99.90;;;;;;5086209;28;20060;-65
2022/10/13 09:07:00;;;;;;;16.52;6.75;;;11.90;99.90;;;;;;5067771;28;20041;-64
2022/10/13 09:09:26;;;;;;;13.27;5.55;;;11.90;99.90;;;;;;5073310;28;20054;-69
2022/10/13 09:11:52;;;;;;;;;;;12.00;99.90;;;;;;5069021;28;20045;-70
2022/10/13 09:14:21;;;;;;;11.55;5.40;;;12.00;99.90;;;;;;5078017;28;19927;-68
2022/10/13 09:16:48;;;;;;;13.40;6.13;;;12.20;99.90;;;;;;5064496;28;20032;-68
2022/10/13 09:19:27;;;;;;;11.95;6.03;;;12.30;99.90;;;;;;5063700;28;20048;-68
2022/10/13 09:21:56;;;;;;;9.85;4.80;;;12.50;99.90;;;;;;5060084;28;20040;-68
2022/10/13 09:24:25;;;;;;;10.80;4.75;;;12.70;99.90;;;;;;5061424;28;20040;-68
2022/10/13 09:27:05;;;;;;;17.05;5.45;;;12.90;99.90;;;;;;5046517;28;20070;-66
2022/10/13 09:29:31;;;;;;;11.48;5.18;;;12.90;99.90;;;;;;5064981;28;20051;-67
2022/10/13 09:32:11;;;;;;;;;;;13.00;99.90;;;;;;5066993;28;20140;-68
2022/10/13 09:34:37;;;;;;;13.15;4.55;;;13.10;99.90;;;;;;5066032;28;19920;-67
2022/10/13 09:37:04;;;;;;;;;;;13.20;99.90;;;;;;5064651;28;20047;-68
2022/10/13 09:39:32;;;;;;;10.00;4.03;;;13.40;99.90;;;;;;5064857;28;20005;-70
2022/10/13 09:42:19;;;;;;;10.52;4.47;;;13.60;99.90;;;;;;5065626;28;20086;-68
2022/10/13 09:44:46;;;;;;;12.88;4.30;;;13.50;99.90;;;;;;5065299;28;20480;-67
2022/10/13 09:47:24;;;;;;;11.77;3.92;;;13.50;99.90;;;;;;5063445;28;20044;-68
2022/10/13 09:50:18;;;;;;;10.45;4.35;;;13.50;99.90;;;;;;5063476;28;20070;-67
2022/10/13 09:52:46;;;;;;;27.25;4.65;;;13.50;99.90;;;;;;5062719;28;20032;-67
2022/10/13 09:55:33;;;;;;;9.20;4.80;;;13.50;99.90;;;;;;5067045;28;20082;-66
2022/10/13 09:58:06;;;;;;;11.80;4.75;;;13.60;99.90;;;;;;5065287;28;20048;-62
2022/10/13 10:00:32;;;;;;;11.70;4.38;;;13.60;99.90;;;;;;5065232;28;20048;-63
2022/10/13 10:03:04;;;;;;;;;;;13.50;99.90;;;;;;5064801;28;20504;-67
2022/10/13 10:05:50;;;;;;;8.30;4.68;;;13.50;99.90;;;;;;5067041;28;19920;-68
2022/10/13 10:08:22;;;;;;;13.02;4.28;;;13.60;99.90;;;;;;5076249;28;20044;-66
2022/10/13 10:10:48;;;;;;;10.18;4.20;;;13.70;99.90;;;;;;5065393;28;20065;-66
2022/10/13 10:13:13;;;;;;;;;;;14.00;99.90;;;;;;5067723;28;20036;-66
2022/10/13 10:15:48;;;;;;;16.30;4.30;;;14.20;99.90;;;;;;5065476;28;19920;-65
2022/10/13 10:18:19;;;;;;;9.35;3.75;;;14.40;99.90;;;;;;5066436;28;20380;-65
2022/10/13 10:21:00;;;;;;;15.60;4.93;;;14.40;99.90;;;;;;5066860;28;20070;-67
2022/10/13 10:23:41;;;;;;;12.38;4.35;;;14.30;99.90;;;;;;5067392;28;20036;-65
2022/10/13 10:26:13;;;;;;;8.63;3.63;;;14.20;99.90;;;;;;5063922;28;20569;-65
2022/10/13 10:28:42;;;;;;;12.40;4.38;;;14.10;99.90;;;;;;5069917;28;20388;-65
2022/10/13 10:31:27;;;;;;;13.48;4.07;;;14.10;99.90;;;;;;5065142;28;20036;-65
2022/10/13 10:34:27;;;;;;;16.60;4.85;;;13.90;99.90;;;;;;5064590;28;20129;-66
2022/10/13 10:37:25;;;;;;;9.05;3.63;;;13.70;99.90;;;;;;5060138;28;20055;-66
2022/10/13 10:40:15;;;;;;;11.85;4.30;;;13.80;99.90;;;;;;5054425;28;20052;-66
2022/10/13 10:43:16;;;;;;;14.30;4.57;;;13.70;99.90;;;;;;5064082;28;20032;-66
2022/10/13 10:45:46;;;;;;;12.07;3.95;;;13.80;99.90;;;;;;5045468;28;20041;-65
2022/10/13 10:48:19;;;;;;;17.10;4.22;;;13.80;99.90;;;;;;5062603;28;20043;-66
2022/10/13 10:50:47;;;;;;;12.90;4.80;;;13.90;99.90;;;;;;5072451;28;20839;-66
2022/10/13 10:53:26;;;;;;;14.63;4.85;;;13.90;99.90;;;;;;5065643;28;20046;-66
2022/10/13 10:55:59;;;;;;;7.60;4.03;;;13.90;99.90;;;;;;5061809;28;20492;-66
2022/10/13 10:59:00;;;;;;;18.40;4.38;;;13.70;99.90;;;;;;5067856;28;20671;-66
2022/10/13 11:01:26;;;;;;;10.88;4.03;;;13.60;99.90;;;;;;5062305;28;20507;-66
2022/10/13 11:04:18;;;;;;;;;;;13.70;99.90;;;;;;5067312;28;20090;-65
2022/10/13 11:06:43;;;;;;;9.85;4.43;;;13.60;99.90;;;;;;5042785;28;20199;-66
2022/10/13 11:09:09;;;;;;;;;;;13.60;99.90;;;;;;5076263;28;20546;-66
2022/10/13 11:11:41;;;;;;;13.63;5.65;;;13.70;99.90;;;;;;5071356;28;19919;-66
2022/10/13 11:14:06;;;;;;;10.30;4.40;;;13.70;99.90;;;;;;5058893;28;20044;-65
2022/10/13 11:16:40;;;;;;;;;;;13.70;99.90;;;;;;5078114;28;20084;-66
2022/10/13 11:19:29;;;;;;;9.63;4.10;;;13.80;99.90;;;;;;5077285;28;19965;-67
2022/10/13 11:21:57;;;;;;;13.57;4.50;;;13.80;99.90;;;;;;5079124;28;20119;-67
2022/10/13 11:24:32;;;;;;;19.63;4.80;;;13.90;99.90;;;;;;5070653;28;20087;-66
2022/10/13 11:27:22;;;;;;;13.65;4.38;;;13.90;99.90;;;;;;5075505;28;20054;-66
2022/10/13 11:29:59;;;;;;;10.98;4.18;;;13.90;99.90;;;;;;5069761;28;20039;-67
2022/10/13 11:32:25;;;;;;;10.93;4.40;;;13.90;99.90;;;;;;5064132;28;20041;-67
2022/10/13 11:35:04;;;;;;;16.90;4.57;;;13.90;99.90;;;;;;5075136;28;20059;-67
2022/10/13 11:37:59;;;;;;;12.60;4.90;;;13.90;99.90;;;;;;5080496;28;20044;-67
2022/10/13 11:40:39;;;;;;;18.75;5.90;;;13.90;99.90;;;;;;5075393;28;20044;-67
2022/10/13 11:43:33;;;;;;;10.27;4.47;;;13.90;99.90;;;;;;5067592;28;20043;-67
2022/10/13 11:46:34;;;;;;;13.10;4.78;;;13.90;99.90;;;;;;5065287;28;20073;-67
2022/10/13 11:49:06;;;;;;;14.98;6.05;;;13.80;99.90;;;;;;5067490;28;20055;-67
2022/10/13 11:52:05;;;;;;;13.40;5.18;;;13.70;99.90;;;;;;5074113;28;20443;-67
2022/10/13 11:55:01;;;;;;;15.45;5.78;;;13.70;99.90;;;;;;5065502;28;20033;-66
2022/10/13 11:57:28;;;;;;;18.45;6.40;;;13.60;99.90;;;;;;5063521;28;20071;-67
2022/10/13 11:59:55;;;;;;;10.05;5.00;;;13.60;99.90;;;;;;5062596;28;20040;-67
2022/10/13 12:02:26;;;;;;;13.20;5.00;;;13.60;99.90;;;;;;5063250;28;20068;-66
2022/10/13 12:05:04;;;;;;;16.20;5.45;;;13.60;99.90;;;;;;5070886;28;20040;-66
2022/10/13 12:07:35;;;;;;;9.43;4.95;;;13.60;99.90;;;;;;5062699;28;20527;-67
2022/10/13 12:10:06;;;;;;;12.80;5.70;;;13.60;99.90;;;;;;5070017;28;20700;-66
2022/10/13 12:12:32;;;;;;;26.33;5.68;;;13.50;99.90;;;;;;5076660;28;20072;-66
2022/10/13 12:14:58;;;;;;;13.93;4.60;;;13.50;99.90;;;;;;5068690;28;20050;-66
2022/10/13 12:17:28;;;;;;;;;;;13.50;99.90;;;;;;5068299;28;20040;-66
2022/10/13 12:19:56;;;;;;;9.43;4.57;;;13.60;99.90;;;;;;5065843;28;19920;-67
2022/10/13 12:22:22;;;;;;;12.80;4.63;;;13.60;99.90;;;;;;5067691;28;20202;-66
2022/10/13 12:24:58;;;;;;;12.88;5.93;;;13.60;99.90;;;;;;5067369;28;20719;-66
2022/10/13 12:27:25;;;;;;;10.18;4.57;;;13.50;99.90;;;;;;5066758;28;20048;-66
2022/10/13 12:29:50;;;;;;;19.02;5.32;;;13.50;99.90;;;;;;5066004;28;20127;-66
2022/10/13 12:32:25;;;;;;;;;;;13.50;99.90;;;;;;5066711;28;20654;-66
2022/10/13 12:34:51;;;;;;;9.85;4.55;;;13.50;99.90;;;;;;5060921;28;19916;-66
2022/10/13 12:37:17;;;;;;;;;;;13.50;99.90;;;;;;5066927;28;20063;-67
2022/10/13 12:39:42;;;;;;;16.23;6.10;;;13.50;99.90;;;;;;5066582;28;19920;-67
2022/10/13 12:42:10;;;;;;;;;;;13.50;99.90;;;;;;5067959;28;20414;-66
2022/10/13 12:44:36;;;;;;;14.05;4.70;;;13.50;99.90;;;;;;5065931;28;19920;-67
2022/10/13 12:47:02;;;;;;;10.80;5.55;;;13.50;99.90;;;;;;5066007;28;20712;-66
2022/10/13 12:49:33;;;;;;;13.90;5.50;;;13.50;99.90;;;;;;5066320;28;20483;-66
2022/10/13 12:52:14;;;;;;;10.60;4.97;;;13.40;99.90;;;;;;5065977;28;20047;-66
2022/10/13 12:54:52;;;;;;;14.65;4.45;;;13.40;99.90;;;;;;5067104;28;20480;-66
2022/10/13 12:57:35;;;;;;;8.10;4.10;;;13.40;99.90;;;;;;5067269;28;20044;-67
2022/10/13 13:00:03;;;;;;;12.68;5.13;;;13.40;99.90;;;;;;5064592;28;20033;-67
2022/10/13 13:02:31;;;;;;;8.80;3.78;;;13.40;99.90;;;;;;5066402;28;20036;-67
2022/10/13 13:04:57;;;;;;;11.88;4.38;;;13.40;99.90;;;;;;5066835;28;20101;-66
2022/10/13 13:07:30;;;;;;;11.23;4.00;;;13.50;99.90;;;;;;5065807;28;20084;-67
2022/10/13 13:10:13;;;;;;;12.40;4.22;;;13.50;99.90;;;;;;5065984;28;20078;-67
2022/10/13 13:12:39;;;;;;;8.45;4.05;;;13.60;99.90;;;;;;5065780;28;20036;-67
2022/10/13 13:15:20;;;;;;;;;;;13.70;99.90;;;;;;5066675;28;20036;-67
2022/10/13 13:17:46;;;;;;;10.93;3.92;;;13.70;99.90;;;;;;5066882;28;19920;-67
2022/10/13 13:20:41;;;;;;;;;;;13.80;99.90;;;;;;5066485;28;20108;-67
2022/10/13 13:23:07;;;;;;;16.17;4.30;;;13.80;99.90;;;;;;5047691;28;20035;-66
2022/10/13 13:25:32;;;;;;;;;;;13.80;99.90;;;;;;5065530;28;20116;-67